« Back
NWS Peachtree City, Ga » Text Product » ATL Terminal Aerodrome Forecast


Printer-friendly Version
Current Version              Previous Versions:   1  2  3  4  5  6  7  8  9  

Terminal Aerodrome Forecast

611
FTUS42 KFFC 181400 AAA
TAFATL
TAF AMD
KATL 181401Z 1814/1918 08012KT P6SM -RA OVC040
     FM181600 07012KT P6SM -RA BKN025
     FM181800 06014G22KT 5SM SHRA OVC015
     FM182300 05018G28KT 4SM SHRA BR OVC008
     FM191200 03018G28KT 6SM -RA BKN015=

USA.gov is the U.S. government's official web portal to all federal, state and local government web resources and services.